Maldives Meteorological Service

METAR

Station
VRMM
METAR VRMM 010200Z 21009KT 9999 FEW018TCU 29/26 Q1011 NOSIG=
VRMH
METAR VRMH 010200Z 22008KT 9999 FEW018TCU BKN270 29/26 Q1011=
VRMK
METAR VRMK 010200Z 16007KT 9999 FEW018TCU SCT270 29/25 Q1011=
VRMT
METAR VRMT 010200Z 16004KT 9999 FEW018 28/25 Q1011=
VRMG
METAR VRMG 010200Z 17005KT 9999 FEW018 28/25 Q1011 NOSIG=
Last Updated : 2020-06-01 07:00:31

SPECI

Station
VRMM
VRMH
VRMK
VRMT
VRMG
Last Updated : 2020-06-01 07:00:31